sensor_id;sensor_type;location;lat;lon;timestamp;pressure;altitude;pressure_sealevel;temperature;humidity
8941;BME280;4505;43.406;23.226;2022-12-18T00:01:49;100839.41;;;7.08;100.00
8941;BME280;4505;43.406;23.226;2022-12-18T00:04:18;100840.91;;;6.96;100.00
8941;BME280;4505;43.406;23.226;2022-12-18T00:06:46;100845.81;;;7.14;100.00
8941;BME280;4505;43.406;23.226;2022-12-18T00:09:13;100855.38;;;7.15;100.00
8941;BME280;4505;43.406;23.226;2022-12-18T00:11:41;100865.19;;;7.21;100.00
8941;BME280;4505;43.406;23.226;2022-12-18T00:14:08;100866.66;;;7.23;100.00
8941;BME280;4505;43.406;23.226;2022-12-18T00:16:35;100866.47;;;7.25;100.00
8941;BME280;4505;43.406;23.226;2022-12-18T00:19:02;100871.19;;;7.29;100.00
8941;BME280;4505;43.406;23.226;2022-12-18T00:21:29;100881.31;;;7.26;100.00
8941;BME280;4505;43.406;23.226;2022-12-18T00:23:57;100888.88;;;7.29;100.00
8941;BME280;4505;43.406;23.226;2022-12-18T00:26:25;100901.38;;;7.35;100.00
8941;BME280;4505;43.406;23.226;2022-12-18T00:28:53;100896.63;;;7.31;100.00
8941;BME280;4505;43.406;23.226;2022-12-18T00:31:21;100900.81;;;7.10;100.00
8941;BME280;4505;43.406;23.226;2022-12-18T00:33:49;100910.97;;;6.84;100.00
8941;BME280;4505;43.406;23.226;2022-12-18T00:36:16;100914.09;;;7.02;100.00
8941;BME280;4505;43.406;23.226;2022-12-18T00:38:43;100912.47;;;6.87;100.00
8941;BME280;4505;43.406;23.226;2022-12-18T00:41:11;100914.38;;;7.07;100.00
8941;BME280;4505;43.406;23.226;2022-12-18T00:43:39;100915.94;;;7.16;100.00
8941;BME280;4505;43.406;23.226;2022-12-18T00:46:06;100913.56;;;7.21;100.00
8941;BME280;4505;43.406;23.226;2022-12-18T00:48:33;100915.47;;;7.13;100.00
8941;BME280;4505;43.406;23.226;2022-12-18T00:50:59;100921.31;;;7.23;100.00
8941;BME280;4505;43.406;23.226;2022-12-18T00:53:26;100921.69;;;7.35;100.00
8941;BME280;4505;43.406;23.226;2022-12-18T00:55:52;100932.06;;;7.07;100.00
8941;BME280;4505;43.406;23.226;2022-12-18T00:58:19;100925.97;;;7.06;100.00
8941;BME280;4505;43.406;23.226;2022-12-18T01:00:46;100932.06;;;7.07;100.00
8941;BME280;4505;43.406;23.226;2022-12-18T01:03:14;100936.34;;;7.08;100.00
8941;BME280;4505;43.406;23.226;2022-12-18T01:05:41;100936.94;;;6.95;100.00
8941;BME280;4505;43.406;23.226;2022-12-18T01:08:08;100939.81;;;6.49;100.00
8941;BME280;4505;43.406;23.226;2022-12-18T01:10:35;100949.69;;;6.32;100.00
8941;BME280;4505;43.406;23.226;2022-12-18T01:13:01;100957.38;;;6.19;100.00
8941;BME280;4505;43.406;23.226;2022-12-18T01:15:28;100961.84;;;6.11;100.00
8941;BME280;4505;43.406;23.226;2022-12-18T01:17:54;100958.91;;;6.06;100.00
8941;BME280;4505;43.406;23.226;2022-12-18T01:20:22;100960.09;;;6.03;100.00
8941;BME280;4505;43.406;23.226;2022-12-18T01:22:49;100956.38;;;5.90;100.00
8941;BME280;4505;43.406;23.226;2022-12-18T01:25:16;100952.78;;;5.82;100.00
8941;BME280;4505;43.406;23.226;2022-12-18T01:27:42;100961.56;;;6.06;100.00
8941;BME280;4505;43.406;23.226;2022-12-18T01:30:09;100955.59;;;6.12;100.00
8941;BME280;4505;43.406;23.226;2022-12-18T01:32:37;100957.72;;;6.16;100.00
8941;BME280;4505;43.406;23.226;2022-12-18T01:35:04;100966.78;;;6.14;100.00
8941;BME280;4505;43.406;23.226;2022-12-18T01:37:32;100959.41;;;6.09;100.00
8941;BME280;4505;43.406;23.226;2022-12-18T01:39:58;100959.09;;;6.04;100.00
8941;BME280;4505;43.406;23.226;2022-12-18T01:42:25;100959.00;;;5.90;100.00
8941;BME280;4505;43.406;23.226;2022-12-18T01:44:56;100958.69;;;5.84;100.00
8941;BME280;4505;43.406;23.226;2022-12-18T01:47:24;100971.38;;;5.89;100.00
8941;BME280;4505;43.406;23.226;2022-12-18T01:49:51;100967.75;;;5.90;100.00
8941;BME280;4505;43.406;23.226;2022-12-18T01:52:18;100966.06;;;5.97;100.00
8941;BME280;4505;43.406;23.226;2022-12-18T01:54:47;100969.09;;;6.09;100.00
8941;BME280;4505;43.406;23.226;2022-12-18T01:57:15;100963.56;;;6.04;100.00
8941;BME280;4505;43.406;23.226;2022-12-18T01:59:41;100967.97;;;6.11;100.00
8941;BME280;4505;43.406;23.226;2022-12-18T02:02:09;100975.81;;;6.19;100.00
8941;BME280;4505;43.406;23.226;2022-12-18T02:04:35;100972.91;;;6.59;100.00
8941;BME280;4505;43.406;23.226;2022-12-18T02:07:03;100973.28;;;6.56;100.00
8941;BME280;4505;43.406;23.226;2022-12-18T02:09:34;100979.28;;;6.65;100.00
8941;BME280;4505;43.406;23.226;2022-12-18T02:12:06;100985.69;;;6.70;100.00
8941;BME280;4505;43.406;23.226;2022-12-18T02:14:38;100989.22;;;6.85;100.00
8941;BME280;4505;43.406;23.226;2022-12-18T02:17:09;100996.84;;;6.58;100.00
8941;BME280;4505;43.406;23.226;2022-12-18T02:19:39;100995.44;;;6.17;100.00
8941;BME280;4505;43.406;23.226;2022-12-18T02:22:12;100996.38;;;5.93;100.00
8941;BME280;4505;43.406;23.226;2022-12-18T02:24:44;101000.00;;;6.00;100.00
8941;BME280;4505;43.406;23.226;2022-12-18T02:27:19;101000.53;;;5.96;100.00
8941;BME280;4505;43.406;23.226;2022-12-18T02:29:46;101007.16;;;5.83;100.00
8941;BME280;4505;43.406;23.226;2022-12-18T02:32:15;101008.44;;;5.96;100.00
8941;BME280;4505;43.406;23.226;2022-12-18T02:34:44;101009.78;;;5.83;100.00
8941;BME280;4505;43.406;23.226;2022-12-18T02:37:12;101010.44;;;5.77;100.00
8941;BME280;4505;43.406;23.226;2022-12-18T02:39:42;101008.50;;;5.71;100.00
8941;BME280;4505;43.406;23.226;2022-12-18T02:42:09;101016.25;;;5.65;100.00
8941;BME280;4505;43.406;23.226;2022-12-18T02:44:42;101003.22;;;5.71;100.00
8941;BME280;4505;43.406;23.226;2022-12-18T02:47:10;101006.84;;;6.09;100.00
8941;BME280;4505;43.406;23.226;2022-12-18T02:49:40;101009.66;;;6.08;100.00
8941;BME280;4505;43.406;23.226;2022-12-18T02:52:13;101026.28;;;6.69;100.00
8941;BME280;4505;43.406;23.226;2022-12-18T02:54:49;101012.19;;;6.32;100.00
8941;BME280;4505;43.406;23.226;2022-12-18T02:57:19;101015.25;;;6.88;100.00
8941;BME280;4505;43.406;23.226;2022-12-18T02:59:52;101023.72;;;6.61;100.00
8941;BME280;4505;43.406;23.226;2022-12-18T03:02:23;101023.13;;;6.21;100.00
8941;BME280;4505;43.406;23.226;2022-12-18T03:04:55;101025.78;;;5.66;100.00
8941;BME280;4505;43.406;23.226;2022-12-18T03:07:25;101030.41;;;5.56;100.00
8941;BME280;4505;43.406;23.226;2022-12-18T03:09:52;101030.63;;;5.38;100.00
8941;BME280;4505;43.406;23.226;2022-12-18T03:12:21;101038.88;;;5.35;100.00
8941;BME280;4505;43.406;23.226;2022-12-18T03:14:54;101040.03;;;5.33;100.00
8941;BME280;4505;43.406;23.226;2022-12-18T03:17:22;101052.88;;;5.36;100.00
8941;BME280;4505;43.406;23.226;2022-12-18T03:19:51;101050.06;;;5.29;100.00
8941;BME280;4505;43.406;23.226;2022-12-18T03:22:19;101060.41;;;5.47;100.00
8941;BME280;4505;43.406;23.226;2022-12-18T03:24:47;101061.69;;;5.67;100.00
8941;BME280;4505;43.406;23.226;2022-12-18T03:27:15;101060.94;;;6.05;100.00
8941;BME280;4505;43.406;23.226;2022-12-18T03:29:44;101063.16;;;6.24;100.00
8941;BME280;4505;43.406;23.226;2022-12-18T03:32:15;101064.19;;;6.46;100.00
8941;BME280;4505;43.406;23.226;2022-12-18T03:34:42;101063.09;;;6.02;100.00
8941;BME280;4505;43.406;23.226;2022-12-18T03:37:13;101069.88;;;5.96;100.00
8941;BME280;4505;43.406;23.226;2022-12-18T03:39:40;101077.22;;;5.54;100.00
8941;BME280;4505;43.406;23.226;2022-12-18T03:42:08;101083.47;;;5.45;100.00
8941;BME280;4505;43.406;23.226;2022-12-18T03:44:39;101085.63;;;5.33;100.00
8941;BME280;4505;43.406;23.226;2022-12-18T03:47:07;101088.56;;;5.38;100.00
8941;BME280;4505;43.406;23.226;2022-12-18T03:49:38;101091.72;;;5.34;100.00
8941;BME280;4505;43.406;23.226;2022-12-18T03:52:07;101087.28;;;5.42;100.00
8941;BME280;4505;43.406;23.226;2022-12-18T03:54:35;101084.81;;;5.33;100.00
8941;BME280;4505;43.406;23.226;2022-12-18T03:57:04;101089.59;;;5.29;100.00
8941;BME280;4505;43.406;23.226;2022-12-18T03:59:33;101083.81;;;5.34;100.00
8941;BME280;4505;43.406;23.226;2022-12-18T04:02:01;101094.69;;;5.39;100.00
8941;BME280;4505;43.406;23.226;2022-12-18T04:04:28;101088.38;;;5.56;100.00
8941;BME280;4505;43.406;23.226;2022-12-18T04:06:57;101079.13;;;5.76;100.00
8941;BME280;4505;43.406;23.226;2022-12-18T04:09:24;101092.97;;;5.94;100.00
8941;BME280;4505;43.406;23.226;2022-12-18T04:11:52;101089.28;;;6.11;100.00
8941;BME280;4505;43.406;23.226;2022-12-18T04:14:18;101087.53;;;6.34;100.00
8941;BME280;4505;43.406;23.226;2022-12-18T04:16:45;101095.09;;;6.37;100.00
8941;BME280;4505;43.406;23.226;2022-12-18T04:19:11;101104.09;;;6.12;100.00
8941;BME280;4505;43.406;23.226;2022-12-18T04:21:38;101104.91;;;6.13;100.00
8941;BME280;4505;43.406;23.226;2022-12-18T04:24:06;101110.69;;;6.16;100.00
8941;BME280;4505;43.406;23.226;2022-12-18T04:26:33;101117.59;;;6.17;100.00
8941;BME280;4505;43.406;23.226;2022-12-18T04:29:00;101124.22;;;6.13;100.00
8941;BME280;4505;43.406;23.226;2022-12-18T04:31:26;101116.13;;;6.15;100.00
8941;BME280;4505;43.406;23.226;2022-12-18T04:33:53;101122.56;;;6.04;100.00
8941;BME280;4505;43.406;23.226;2022-12-18T04:36:20;101111.19;;;6.12;100.00
8941;BME280;4505;43.406;23.226;2022-12-18T04:38:46;101116.69;;;5.94;100.00
8941;BME280;4505;43.406;23.226;2022-12-18T04:41:14;101117.25;;;6.20;100.00
8941;BME280;4505;43.406;23.226;2022-12-18T04:43:41;101120.34;;;6.32;100.00
8941;BME280;4505;43.406;23.226;2022-12-18T04:46:08;101128.63;;;6.21;100.00
8941;BME280;4505;43.406;23.226;2022-12-18T04:48:36;101135.38;;;6.23;100.00
8941;BME280;4505;43.406;23.226;2022-12-18T04:51:03;101134.69;;;6.29;100.00
8941;BME280;4505;43.406;23.226;2022-12-18T04:53:30;101143.69;;;6.43;100.00
8941;BME280;4505;43.406;23.226;2022-12-18T04:56:06;101148.84;;;6.36;100.00
8941;BME280;4505;43.406;23.226;2022-12-18T04:58:35;101142.13;;;6.26;100.00
8941;BME280;4505;43.406;23.226;2022-12-18T05:01:02;101141.94;;;6.35;100.00
8941;BME280;4505;43.406;23.226;2022-12-18T05:03:29;101153.78;;;6.39;100.00
8941;BME280;4505;43.406;23.226;2022-12-18T05:05:55;101154.41;;;6.49;100.00
8941;BME280;4505;43.406;23.226;2022-12-18T05:08:22;101161.88;;;6.30;100.00
8941;BME280;4505;43.406;23.226;2022-12-18T05:10:49;101174.66;;;6.10;100.00
8941;BME280;4505;43.406;23.226;2022-12-18T05:13:15;101171.72;;;5.81;100.00
8941;BME280;4505;43.406;23.226;2022-12-18T05:15:50;101166.44;;;5.97;100.00
8941;BME280;4505;43.406;23.226;2022-12-18T05:18:17;101175.28;;;6.12;100.00
8941;BME280;4505;43.406;23.226;2022-12-18T05:20:44;101171.78;;;6.36;100.00
8941;BME280;4505;43.406;23.226;2022-12-18T05:23:10;101176.78;;;6.23;100.00
8941;BME280;4505;43.406;23.226;2022-12-18T05:25:37;101185.34;;;6.17;100.00
8941;BME280;4505;43.406;23.226;2022-12-18T05:28:04;101186.84;;;6.11;100.00
8941;BME280;4505;43.406;23.226;2022-12-18T05:30:30;101190.16;;;6.05;100.00
8941;BME280;4505;43.406;23.226;2022-12-18T05:32:58;101192.31;;;6.02;100.00
8941;BME280;4505;43.406;23.226;2022-12-18T05:35:25;101189.53;;;5.87;100.00
8941;BME280;4505;43.406;23.226;2022-12-18T05:37:52;101202.84;;;6.02;100.00
8941;BME280;4505;43.406;23.226;2022-12-18T05:40:18;101208.28;;;6.08;100.00
8941;BME280;4505;43.406;23.226;2022-12-18T05:42:45;101209.44;;;5.90;100.00
8941;BME280;4505;43.406;23.226;2022-12-18T05:45:11;101211.44;;;6.04;100.00
8941;BME280;4505;43.406;23.226;2022-12-18T05:47:38;101215.34;;;6.08;100.00
8941;BME280;4505;43.406;23.226;2022-12-18T05:50:07;101219.16;;;6.05;100.00
8941;BME280;4505;43.406;23.226;2022-12-18T05:52:33;101221.94;;;6.20;100.00
8941;BME280;4505;43.406;23.226;2022-12-18T05:55:00;101220.59;;;6.32;100.00
8941;BME280;4505;43.406;23.226;2022-12-18T05:57:27;101224.09;;;6.16;100.00
8941;BME280;4505;43.406;23.226;2022-12-18T05:59:53;101225.56;;;6.19;100.00
8941;BME280;4505;43.406;23.226;2022-12-18T06:02:20;101233.16;;;6.14;100.00
8941;BME280;4505;43.406;23.226;2022-12-18T06:04:47;101230.47;;;6.30;100.00
8941;BME280;4505;43.406;23.226;2022-12-18T06:07:15;101238.53;;;6.36;100.00
8941;BME280;4505;43.406;23.226;2022-12-18T06:09:41;101239.69;;;6.42;100.00
8941;BME280;4505;43.406;23.226;2022-12-18T06:12:08;101237.88;;;6.42;100.00
8941;BME280;4505;43.406;23.226;2022-12-18T06:14:35;101243.25;;;6.57;100.00
8941;BME280;4505;43.406;23.226;2022-12-18T06:17:04;101244.41;;;6.62;100.00
8941;BME280;4505;43.406;23.226;2022-12-18T06:19:34;101246.72;;;6.57;100.00
8941;BME280;4505;43.406;23.226;2022-12-18T06:22:03;101251.19;;;6.57;100.00
8941;BME280;4505;43.406;23.226;2022-12-18T06:24:31;101250.13;;;6.82;100.00
8941;BME280;4505;43.406;23.226;2022-12-18T06:26:58;101247.16;;;6.77;100.00
8941;BME280;4505;43.406;23.226;2022-12-18T06:32:03;101246.25;;;6.54;100.00
8941;BME280;4505;43.406;23.226;2022-12-18T06:34:32;101251.53;;;6.54;100.00
8941;BME280;4505;43.406;23.226;2022-12-18T06:36:59;101259.47;;;6.92;100.00
8941;BME280;4505;43.406;23.226;2022-12-18T06:39:26;101266.75;;;6.90;100.00
8941;BME280;4505;43.406;23.226;2022-12-18T06:41:55;101270.16;;;6.99;100.00
8941;BME280;4505;43.406;23.226;2022-12-18T06:44:32;101272.59;;;7.08;100.00
8941;BME280;4505;43.406;23.226;2022-12-18T06:46:59;101269.56;;;6.81;100.00
8941;BME280;4505;43.406;23.226;2022-12-18T06:49:25;101274.22;;;6.79;100.00
8941;BME280;4505;43.406;23.226;2022-12-18T06:51:52;101271.59;;;6.79;100.00
8941;BME280;4505;43.406;23.226;2022-12-18T06:54:21;101276.28;;;6.99;100.00
8941;BME280;4505;43.406;23.226;2022-12-18T06:56:47;101280.88;;;7.05;100.00
8941;BME280;4505;43.406;23.226;2022-12-18T06:59:16;101286.84;;;6.99;100.00
8941;BME280;4505;43.406;23.226;2022-12-18T07:01:42;101297.25;;;7.01;100.00
8941;BME280;4505;43.406;23.226;2022-12-18T07:04:09;101303.59;;;6.76;100.00
8941;BME280;4505;43.406;23.226;2022-12-18T07:06:36;101310.41;;;6.62;100.00
8941;BME280;4505;43.406;23.226;2022-12-18T07:09:03;101307.22;;;6.75;100.00
8941;BME280;4505;43.406;23.226;2022-12-18T07:11:31;101308.19;;;6.82;100.00
8941;BME280;4505;43.406;23.226;2022-12-18T07:13:58;101314.81;;;6.78;100.00
8941;BME280;4505;43.406;23.226;2022-12-18T07:16:26;101317.13;;;6.73;100.00
8941;BME280;4505;43.406;23.226;2022-12-18T07:18:54;101318.28;;;6.70;100.00
8941;BME280;4505;43.406;23.226;2022-12-18T07:21:21;101319.53;;;6.44;100.00
8941;BME280;4505;43.406;23.226;2022-12-18T07:23:48;101326.59;;;6.43;100.00
8941;BME280;4505;43.406;23.226;2022-12-18T07:26:16;101325.28;;;6.31;100.00
8941;BME280;4505;43.406;23.226;2022-12-18T07:28:43;101318.66;;;6.59;100.00
8941;BME280;4505;43.406;23.226;2022-12-18T07:31:10;101317.66;;;6.60;100.00
8941;BME280;4505;43.406;23.226;2022-12-18T07:33:39;101327.06;;;6.63;100.00
8941;BME280;4505;43.406;23.226;2022-12-18T07:36:08;101324.91;;;6.66;100.00
8941;BME280;4505;43.406;23.226;2022-12-18T07:38:35;101337.78;;;6.61;100.00
8941;BME280;4505;43.406;23.226;2022-12-18T07:41:02;101331.69;;;6.61;100.00
8941;BME280;4505;43.406;23.226;2022-12-18T07:43:29;101336.19;;;6.99;100.00
8941;BME280;4505;43.406;23.226;2022-12-18T07:45:56;101328.00;;;7.24;100.00
8941;BME280;4505;43.406;23.226;2022-12-18T07:48:23;101329.19;;;7.53;100.00
8941;BME280;4505;43.406;23.226;2022-12-18T07:50:51;101332.31;;;7.25;100.00
8941;BME280;4505;43.406;23.226;2022-12-18T07:53:17;101335.09;;;7.32;100.00
8941;BME280;4505;43.406;23.226;2022-12-18T07:55:45;101336.38;;;7.36;100.00
8941;BME280;4505;43.406;23.226;2022-12-18T07:58:12;101341.97;;;7.41;100.00
8941;BME280;4505;43.406;23.226;2022-12-18T08:00:39;101343.53;;;7.19;100.00
8941;BME280;4505;43.406;23.226;2022-12-18T08:03:05;101349.84;;;7.49;100.00
8941;BME280;4505;43.406;23.226;2022-12-18T08:05:32;101344.78;;;7.70;100.00
8941;BME280;4505;43.406;23.226;2022-12-18T08:08:00;101351.84;;;7.47;100.00
8941;BME280;4505;43.406;23.226;2022-12-18T08:10:26;101360.63;;;7.01;100.00
8941;BME280;4505;43.406;23.226;2022-12-18T08:12:53;101369.44;;;6.77;100.00
8941;BME280;4505;43.406;23.226;2022-12-18T08:15:20;101371.06;;;6.86;100.00
8941;BME280;4505;43.406;23.226;2022-12-18T08:17:46;101380.13;;;7.00;100.00
8941;BME280;4505;43.406;23.226;2022-12-18T08:20:13;101378.75;;;7.12;100.00
8941;BME280;4505;43.406;23.226;2022-12-18T08:22:40;101372.59;;;7.58;100.00
8941;BME280;4505;43.406;23.226;2022-12-18T08:25:09;101369.53;;;8.00;100.00
8941;BME280;4505;43.406;23.226;2022-12-18T08:27:35;101372.22;;;8.14;100.00
8941;BME280;4505;43.406;23.226;2022-12-18T08:30:03;101377.00;;;7.96;100.00
8941;BME280;4505;43.406;23.226;2022-12-18T08:32:29;101377.63;;;8.21;100.00
8941;BME280;4505;43.406;23.226;2022-12-18T08:34:58;101375.25;;;8.34;100.00
8941;BME280;4505;43.406;23.226;2022-12-18T08:37:24;101376.56;;;8.38;100.00
8941;BME280;4505;43.406;23.226;2022-12-18T08:39:51;101371.13;;;8.54;100.00
8941;BME280;4505;43.406;23.226;2022-12-18T08:42:19;101369.75;;;8.13;100.00
8941;BME280;4505;43.406;23.226;2022-12-18T08:45:03;101375.16;;;7.74;100.00
8941;BME280;4505;43.406;23.226;2022-12-18T08:47:30;101380.94;;;7.39;100.00
8941;BME280;4505;43.406;23.226;2022-12-18T08:49:56;101373.06;;;7.62;100.00
8941;BME280;4505;43.406;23.226;2022-12-18T08:52:23;101371.13;;;7.56;100.00
8941;BME280;4505;43.406;23.226;2022-12-18T08:54:49;101365.22;;;7.46;100.00
8941;BME280;4505;43.406;23.226;2022-12-18T08:57:20;101374.88;;;7.61;100.00
8941;BME280;4505;43.406;23.226;2022-12-18T08:59:46;101377.16;;;7.72;100.00
8941;BME280;4505;43.406;23.226;2022-12-18T09:02:13;101376.56;;;7.62;100.00
8941;BME280;4505;43.406;23.226;2022-12-18T09:04:40;101378.81;;;8.26;100.00
8941;BME280;4505;43.406;23.226;2022-12-18T09:07:06;101373.97;;;8.52;100.00
8941;BME280;4505;43.406;23.226;2022-12-18T09:09:33;101385.56;;;8.66;100.00
8941;BME280;4505;43.406;23.226;2022-12-18T09:12:00;101375.84;;;8.44;100.00
8941;BME280;4505;43.406;23.226;2022-12-18T09:14:27;101380.00;;;8.38;100.00
8941;BME280;4505;43.406;23.226;2022-12-18T09:16:54;101377.75;;;9.02;100.00
8941;BME280;4505;43.406;23.226;2022-12-18T09:19:21;101371.88;;;8.77;100.00
8941;BME280;4505;43.406;23.226;2022-12-18T09:21:47;101370.75;;;8.57;100.00
8941;BME280;4505;43.406;23.226;2022-12-18T09:24:14;101370.44;;;8.75;100.00
8941;BME280;4505;43.406;23.226;2022-12-18T09:26:41;101364.13;;;8.76;100.00
8941;BME280;4505;43.406;23.226;2022-12-18T09:29:08;101364.78;;;8.92;100.00
8941;BME280;4505;43.406;23.226;2022-12-18T09:31:36;101366.69;;;8.98;100.00
8941;BME280;4505;43.406;23.226;2022-12-18T09:34:03;101376.44;;;8.98;100.00
8941;BME280;4505;43.406;23.226;2022-12-18T09:36:29;101375.47;;;8.84;100.00
8941;BME280;4505;43.406;23.226;2022-12-18T09:38:56;101371.34;;;8.96;100.00
8941;BME280;4505;43.406;23.226;2022-12-18T09:41:32;101373.00;;;8.83;100.00
8941;BME280;4505;43.406;23.226;2022-12-18T09:44:01;101387.59;;;8.93;100.00
8941;BME280;4505;43.406;23.226;2022-12-18T09:46:30;101387.25;;;9.11;100.00
8941;BME280;4505;43.406;23.226;2022-12-18T09:49:02;101380.94;;;9.41;100.00
8941;BME280;4505;43.406;23.226;2022-12-18T09:51:32;101376.81;;;8.80;100.00
8941;BME280;4505;43.406;23.226;2022-12-18T09:54:01;101381.59;;;8.99;100.00
8941;BME280;4505;43.406;23.226;2022-12-18T09:56:29;101378.03;;;9.07;100.00
8941;BME280;4505;43.406;23.226;2022-12-18T09:59:04;101377.00;;;8.79;100.00
8941;BME280;4505;43.406;23.226;2022-12-18T10:01:33;101374.88;;;8.59;100.00
8941;BME280;4505;43.406;23.226;2022-12-18T10:03:59;101383.16;;;8.56;100.00
8941;BME280;4505;43.406;23.226;2022-12-18T10:06:32;101391.03;;;8.64;100.00
8941;BME280;4505;43.406;23.226;2022-12-18T10:09:02;101380.63;;;8.63;100.00
8941;BME280;4505;43.406;23.226;2022-12-18T10:11:34;101383.19;;;8.71;100.00
8941;BME280;4505;43.406;23.226;2022-12-18T10:14:06;101392.34;;;8.98;100.00
8941;BME280;4505;43.406;23.226;2022-12-18T10:16:37;101385.50;;;9.03;100.00
8941;BME280;4505;43.406;23.226;2022-12-18T10:19:14;101387.72;;;9.14;100.00
8941;BME280;4505;43.406;23.226;2022-12-18T10:21:45;101390.78;;;9.61;100.00
8941;BME280;4505;43.406;23.226;2022-12-18T10:24:17;101395.16;;;9.54;100.00
8941;BME280;4505;43.406;23.226;2022-12-18T10:26:47;101401.13;;;9.92;100.00
8941;BME280;4505;43.406;23.226;2022-12-18T10:29:14;101403.22;;;8.88;100.00
8941;BME280;4505;43.406;23.226;2022-12-18T10:31:41;101396.88;;;9.97;100.00
8941;BME280;4505;43.406;23.226;2022-12-18T10:34:08;101394.03;;;9.99;100.00
8941;BME280;4505;43.406;23.226;2022-12-18T10:36:35;101401.06;;;9.85;100.00
8941;BME280;4505;43.406;23.226;2022-12-18T10:39:15;101398.81;;;9.68;100.00
8941;BME280;4505;43.406;23.226;2022-12-18T10:41:42;101391.84;;;9.31;100.00
8941;BME280;4505;43.406;23.226;2022-12-18T10:44:14;101393.75;;;9.37;100.00
8941;BME280;4505;43.406;23.226;2022-12-18T10:46:42;101409.91;;;9.42;100.00
8941;BME280;4505;43.406;23.226;2022-12-18T10:49:18;101400.97;;;9.14;100.00
8941;BME280;4505;43.406;23.226;2022-12-18T10:51:45;101383.41;;;9.28;100.00
8941;BME280;4505;43.406;23.226;2022-12-18T10:54:13;101389.97;;;9.32;100.00
8941;BME280;4505;43.406;23.226;2022-12-18T10:56:41;101391.47;;;9.20;100.00
8941;BME280;4505;43.406;23.226;2022-12-18T10:59:09;101392.34;;;9.27;100.00
8941;BME280;4505;43.406;23.226;2022-12-18T11:01:48;101394.63;;;9.44;93.53
8941;BME280;4505;43.406;23.226;2022-12-18T11:04:16;101388.03;;;9.69;86.48
8941;BME280;4505;43.406;23.226;2022-12-18T11:06:52;101385.94;;;9.86;71.69
8941;BME280;4505;43.406;23.226;2022-12-18T11:09:19;101376.22;;;10.29;61.22
8941;BME280;4505;43.406;23.226;2022-12-18T11:11:49;101367.09;;;10.17;58.26
8941;BME280;4505;43.406;23.226;2022-12-18T11:14:18;101367.66;;;10.12;58.61
8941;BME280;4505;43.406;23.226;2022-12-18T11:16:47;101366.97;;;10.03;57.83
8941;BME280;4505;43.406;23.226;2022-12-18T11:19:19;101377.66;;;9.74;56.36
8941;BME280;4505;43.406;23.226;2022-12-18T11:21:47;101371.25;;;10.04;56.07
8941;BME280;4505;43.406;23.226;2022-12-18T11:24:17;101390.41;;;9.64;55.87
8941;BME280;4505;43.406;23.226;2022-12-18T11:26:45;101390.84;;;9.68;57.25
8941;BME280;4505;43.406;23.226;2022-12-18T11:29:16;101385.03;;;9.58;58.91
8941;BME280;4505;43.406;23.226;2022-12-18T11:31:43;101389.91;;;9.75;60.68
8941;BME280;4505;43.406;23.226;2022-12-18T11:34:11;101390.28;;;9.72;59.68
8941;BME280;4505;43.406;23.226;2022-12-18T11:36:41;101387.84;;;9.56;57.93
8941;BME280;4505;43.406;23.226;2022-12-18T11:39:10;101389.28;;;9.73;58.38
8941;BME280;4505;43.406;23.226;2022-12-18T11:41:39;101383.41;;;9.78;58.46
8941;BME280;4505;43.406;23.226;2022-12-18T11:44:26;101377.69;;;9.95;55.05
8941;BME280;4505;43.406;23.226;2022-12-18T11:46:56;101381.19;;;9.81;55.90
8941;BME280;4505;43.406;23.226;2022-12-18T11:49:26;101383.16;;;9.73;55.92
8941;BME280;4505;43.406;23.226;2022-12-18T11:51:55;101386.88;;;9.78;56.76
8941;BME280;4505;43.406;23.226;2022-12-18T11:54:24;101377.78;;;9.66;56.35
8941;BME280;4505;43.406;23.226;2022-12-18T11:56:51;101387.22;;;9.54;58.27
8941;BME280;4505;43.406;23.226;2022-12-18T11:59:22;101390.22;;;9.66;58.55
8941;BME280;4505;43.406;23.226;2022-12-18T12:01:54;101393.69;;;9.66;58.69
8941;BME280;4505;43.406;23.226;2022-12-18T12:04:35;101394.81;;;9.43;59.57
8941;BME280;4505;43.406;23.226;2022-12-18T12:07:09;101396.22;;;9.24;60.82
8941;BME280;4505;43.406;23.226;2022-12-18T12:09:40;101391.78;;;9.46;58.97
8941;BME280;4505;43.406;23.226;2022-12-18T12:12:16;101382.97;;;9.74;58.19
8941;BME280;4505;43.406;23.226;2022-12-18T12:14:48;101388.88;;;9.55;58.79
8941;BME280;4505;43.406;23.226;2022-12-18T12:17:22;101391.34;;;9.42;58.37
8941;BME280;4505;43.406;23.226;2022-12-18T12:19:53;101394.00;;;9.42;60.02
8941;BME280;4505;43.406;23.226;2022-12-18T12:22:26;101397.38;;;9.51;59.11
8941;BME280;4505;43.406;23.226;2022-12-18T12:25:01;101394.13;;;9.34;58.48
8941;BME280;4505;43.406;23.226;2022-12-18T12:27:34;101396.66;;;9.13;59.51
8941;BME280;4505;43.406;23.226;2022-12-18T12:30:06;101398.13;;;9.01;59.47
8941;BME280;4505;43.406;23.226;2022-12-18T12:32:48;101402.78;;;8.99;59.89
8941;BME280;4505;43.406;23.226;2022-12-18T12:35:22;101400.47;;;8.82;59.66
8941;BME280;4505;43.406;23.226;2022-12-18T12:37:53;101401.56;;;8.73;58.69
8941;BME280;4505;43.406;23.226;2022-12-18T12:40:26;101397.19;;;8.80;61.17
8941;BME280;4505;43.406;23.226;2022-12-18T12:42:54;101401.94;;;8.84;62.73
8941;BME280;4505;43.406;23.226;2022-12-18T12:45:41;101399.38;;;8.76;61.29
8941;BME280;4505;43.406;23.226;2022-12-18T12:48:18;101403.13;;;8.67;59.61
8941;BME280;4505;43.406;23.226;2022-12-18T12:50:47;101408.91;;;9.00;60.39
8941;BME280;4505;43.406;23.226;2022-12-18T12:53:17;101408.81;;;9.22;58.24
8941;BME280;4505;43.406;23.226;2022-12-18T12:55:47;101414.13;;;9.22;58.64
8941;BME280;4505;43.406;23.226;2022-12-18T12:58:14;101418.06;;;9.26;58.19
8941;BME280;4505;43.406;23.226;2022-12-18T13:00:44;101423.91;;;9.07;59.33
8941;BME280;4505;43.406;23.226;2022-12-18T13:03:22;101418.50;;;8.86;60.79
8941;BME280;4505;43.406;23.226;2022-12-18T13:05:54;101432.31;;;8.73;64.31
8941;BME280;4505;43.406;23.226;2022-12-18T13:08:22;101428.94;;;8.65;62.69
8941;BME280;4505;43.406;23.226;2022-12-18T13:10:50;101428.66;;;8.60;63.23
8941;BME280;4505;43.406;23.226;2022-12-18T13:13:47;101442.19;;;8.65;65.99